Time;durP1;ratioP1;P1;durP2;ratioP2;P2;SDS_P1;SDS_P2;PMS_P1;PMS_P2;Temp;Humidity;BMP_temperature;BMP_pressure;BME280_temperature;BME280_humidity;BME280_pressure;Samples;Min_cycle;Max_cycle;Signal;HPM_P1;HPM_P2
2023/03/06 00:00:09;;;;;;;7.13;2.72;;;3.30;99.90;;;;;;5057182;28;20039;-71
2023/03/06 00:02:35;;;;;;;6.43;2.67;;;3.30;99.90;;;;;;5050342;28;20127;-71
2023/03/06 00:05:00;;;;;;;5.88;2.40;;;3.30;99.90;;;;;;5064898;28;20115;-71
2023/03/06 00:07:26;;;;;;;4.85;2.20;;;3.30;99.90;;;;;;5067807;28;20032;-71
2023/03/06 00:09:51;;;;;;;5.88;2.70;;;3.30;99.90;;;;;;5032358;28;20047;-71
2023/03/06 00:12:17;;;;;;;4.80;2.28;;;3.20;99.90;;;;;;5060395;28;20046;-71
2023/03/06 00:14:42;;;;;;;7.28;2.33;;;3.20;99.90;;;;;;5064555;28;20041;-71
2023/03/06 00:17:08;;;;;;;5.15;2.83;;;3.10;99.90;;;;;;5062588;28;20044;-71
2023/03/06 00:19:33;;;;;;;4.53;2.20;;;3.10;99.90;;;;;;5063357;28;20032;-71
2023/03/06 00:21:59;;;;;;;4.50;2.28;;;3.00;99.90;;;;;;5063435;28;20668;-71
2023/03/06 00:24:25;;;;;;;2.75;2.30;;;3.00;99.90;;;;;;5049730;28;20040;-70
2023/03/06 00:26:50;;;;;;;4.70;2.40;;;3.00;99.90;;;;;;5082226;28;20127;-71
2023/03/06 00:29:16;;;;;;;4.80;2.20;;;2.90;99.90;;;;;;5046370;28;20399;-71
2023/03/06 00:31:45;;;;;;;4.78;2.30;;;2.80;99.90;;;;;;5051754;28;20040;-71
2023/03/06 00:34:10;;;;;;;4.78;2.38;;;2.80;99.90;;;;;;5064182;28;20044;-72
2023/03/06 00:36:36;;;;;;;5.72;2.53;;;2.80;99.90;;;;;;5060961;28;20047;-71
2023/03/06 00:39:02;;;;;;;2.63;2.40;;;2.70;99.90;;;;;;5063198;28;20489;-71
2023/03/06 00:41:27;;;;;;;5.75;2.40;;;2.80;99.90;;;;;;5063696;28;20039;-71
2023/03/06 00:43:53;;;;;;;4.68;2.40;;;2.80;99.90;;;;;;5061525;28;20090;-71
2023/03/06 00:46:18;;;;;;;5.60;2.60;;;2.80;99.90;;;;;;5064528;28;20562;-71
2023/03/06 00:48:44;;;;;;;5.90;2.85;;;2.80;99.90;;;;;;5067269;28;20036;-71
2023/03/06 00:51:10;;;;;;;7.60;2.70;;;2.80;99.90;;;;;;5048948;28;20577;-71
2023/03/06 00:53:35;;;;;;;6.95;2.53;;;2.80;99.90;;;;;;5078840;28;20044;-72
2023/03/06 00:56:01;;;;;;;4.60;2.60;;;2.80;99.90;;;;;;5066623;28;20040;-71
2023/03/06 00:58:26;;;;;;;6.63;2.83;;;2.80;99.90;;;;;;5063325;28;20051;-72
2023/03/06 01:00:52;;;;;;;3.97;2.70;;;2.90;99.90;;;;;;5046535;28;20040;-71
2023/03/06 01:03:18;;;;;;;4.65;2.80;;;2.90;99.90;;;;;;5057767;28;20028;-72
2023/03/06 01:05:43;;;;;;;6.70;2.65;;;3.00;99.90;;;;;;5048419;28;20238;-71
2023/03/06 01:08:09;;;;;;;4.47;2.90;;;3.00;99.90;;;;;;5049524;28;20912;-72
2023/03/06 01:10:39;;;;;;;3.70;2.53;;;2.90;99.90;;;;;;5061884;28;20047;-72
2023/03/06 01:13:05;;;;;;;4.65;2.80;;;2.90;99.90;;;;;;5048759;28;20388;-71
2023/03/06 01:15:31;;;;;;;5.05;3.20;;;2.80;99.90;;;;;;5063590;28;20047;-71
2023/03/06 01:17:57;;;;;;;8.75;3.25;;;2.90;99.90;;;;;;5047289;28;20492;-71
2023/03/06 01:20:22;;;;;;;7.05;3.30;;;2.90;99.90;;;;;;5048359;28;20116;-71
2023/03/06 01:22:48;;;;;;;7.30;3.17;;;2.90;99.90;;;;;;5045066;28;20047;-71
2023/03/06 01:25:14;;;;;;;8.00;3.55;;;3.00;99.90;;;;;;5040463;28;20445;-71
2023/03/06 01:27:40;;;;;;;6.90;3.22;;;3.00;99.90;;;;;;5055998;28;20052;-71
2023/03/06 01:30:06;;;;;;;5.28;3.25;;;2.90;99.90;;;;;;5056694;28;20037;-71
2023/03/06 01:32:33;;;;;;;6.95;3.30;;;3.00;99.90;;;;;;5053341;28;20132;-71
2023/03/06 01:34:59;;;;;;;7.32;3.42;;;3.00;99.90;;;;;;5041925;28;20150;-71
2023/03/06 01:37:24;;;;;;;6.70;3.40;;;3.00;99.90;;;;;;5080702;28;20048;-71
2023/03/06 01:39:50;;;;;;;8.48;3.20;;;3.10;99.90;;;;;;5047520;28;20044;-71
2023/03/06 01:42:15;;;;;;;8.25;3.40;;;3.10;99.90;;;;;;5062028;28;20044;-71
2023/03/06 01:45:02;;;;;;;7.47;3.53;;;3.10;99.90;;;;;;5053996;28;20054;-71
2023/03/06 01:47:27;;;;;;;6.03;3.28;;;3.10;99.90;;;;;;5038347;28;20059;-71
2023/03/06 01:49:54;;;;;;;4.03;3.05;;;3.10;99.90;;;;;;5051095;28;20086;-71
2023/03/06 01:52:25;;;;;;;7.80;3.05;;;3.10;99.90;;;;;;5059700;28;20388;-71
2023/03/06 01:54:59;;;;;;;5.38;3.22;;;3.10;99.90;;;;;;5060027;28;20078;-71
2023/03/06 01:57:29;;;;;;;5.30;3.10;;;3.10;99.90;;;;;;5054789;28;20044;-71
2023/03/06 02:00:07;;;;;;;5.07;2.90;;;3.00;99.90;;;;;;5042903;28;20068;-71
2023/03/06 02:02:32;;;;;;;6.20;3.75;;;3.10;99.90;;;;;;5045206;28;20078;-71
2023/03/06 02:05:00;;;;;;;8.30;3.00;;;3.00;99.90;;;;;;5043081;28;20068;-71
2023/03/06 02:07:27;;;;;;;4.65;2.90;;;3.00;99.90;;;;;;5058352;28;20135;-71
2023/03/06 02:09:53;;;;;;;6.70;3.10;;;2.90;99.90;;;;;;5048902;28;20402;-71
2023/03/06 02:12:20;;;;;;;5.97;2.90;;;2.90;99.90;;;;;;5070786;28;20122;-71
2023/03/06 02:14:46;;;;;;;5.50;3.00;;;2.90;99.90;;;;;;5072836;28;20392;-71
2023/03/06 02:17:15;;;;;;;5.43;2.83;;;2.90;99.90;;;;;;5069936;28;20036;-71
2023/03/06 02:19:54;;;;;;;4.03;2.80;;;2.90;99.90;;;;;;5063399;28;20047;-71
2023/03/06 02:22:20;;;;;;;7.97;2.90;;;2.90;99.90;;;;;;5064286;28;20051;-71
2023/03/06 02:25:00;;;;;;;5.35;2.90;;;2.90;99.90;;;;;;5043720;28;20080;-71
2023/03/06 02:27:26;;;;;;;7.45;3.00;;;2.90;99.90;;;;;;5059568;28;20368;-71
2023/03/06 02:29:52;;;;;;;6.70;3.05;;;2.90;99.90;;;;;;5066257;28;20061;-70
2023/03/06 02:32:17;;;;;;;4.70;2.47;;;2.80;99.90;;;;;;5059751;28;20047;-71
2023/03/06 02:34:54;;;;;;;3.30;1.60;;;2.80;99.90;;;;;;5064457;28;20333;-71
2023/03/06 02:37:21;;;;;;;2.53;2.08;;;2.80;99.90;;;;;;5064731;28;20029;-71
2023/03/06 02:39:53;;;;;;;3.50;1.90;;;2.60;99.90;;;;;;5067606;28;20470;-71
2023/03/06 02:42:24;;;;;;;3.53;2.00;;;2.60;99.90;;;;;;5041938;28;20037;-71
2023/03/06 02:44:52;;;;;;;3.35;2.05;;;2.50;99.90;;;;;;5066165;28;20040;-71
2023/03/06 02:47:18;;;;;;;2.95;1.83;;;2.40;99.90;;;;;;5060384;28;20122;-71
2023/03/06 02:49:43;;;;;;;2.75;2.10;;;2.30;99.90;;;;;;5058095;28;20052;-72
2023/03/06 02:52:09;;;;;;;2.03;1.80;;;2.20;99.90;;;;;;5053642;28;20044;-72
2023/03/06 02:54:35;;;;;;;3.65;2.10;;;2.10;99.90;;;;;;5061643;28;20040;-72
2023/03/06 02:57:00;;;;;;;2.20;2.00;;;2.00;99.90;;;;;;5083115;28;20588;-72
2023/03/06 02:59:26;;;;;;;2.53;2.08;;;1.90;99.90;;;;;;5047989;28;20036;-72
2023/03/06 03:01:52;;;;;;;3.42;2.00;;;1.90;99.90;;;;;;5066245;28;20524;-72
2023/03/06 03:04:17;;;;;;;3.83;2.00;;;1.90;99.90;;;;;;5063974;28;20115;-71
2023/03/06 03:06:43;;;;;;;4.03;1.90;;;1.90;99.90;;;;;;5043876;28;20036;-72
2023/03/06 03:09:08;;;;;;;2.47;2.10;;;1.90;99.90;;;;;;5046634;28;20036;-72
2023/03/06 03:11:34;;;;;;;2.22;2.03;;;1.90;99.90;;;;;;5046922;28;20475;-72
2023/03/06 03:13:59;;;;;;;2.45;1.70;;;1.80;99.90;;;;;;5039440;28;20827;-71
2023/03/06 03:16:25;;;;;;;1.90;1.80;;;1.80;99.90;;;;;;5065368;28;20040;-72
2023/03/06 03:18:51;;;;;;;2.65;2.00;;;1.80;99.90;;;;;;5058346;28;20051;-71
2023/03/06 03:21:17;;;;;;;2.97;2.10;;;1.80;99.90;;;;;;5043865;28;20036;-72
2023/03/06 03:23:43;;;;;;;2.63;1.95;;;1.70;99.90;;;;;;5067154;28;20063;-71
2023/03/06 03:26:11;;;;;;;2.20;2.00;;;1.70;99.90;;;;;;5047739;28;20036;-71
2023/03/06 03:28:37;;;;;;;3.42;2.10;;;1.70;99.90;;;;;;5063635;28;20041;-72
2023/03/06 03:31:05;;;;;;;3.45;1.80;;;1.60;99.90;;;;;;5048209;28;20063;-72
2023/03/06 03:33:31;;;;;;;2.92;2.00;;;1.60;99.90;;;;;;5039254;28;20036;-71
2023/03/06 03:36:01;;;;;;;2.10;1.90;;;1.60;99.90;;;;;;5066061;28;20495;-71
2023/03/06 03:38:27;;;;;;;2.35;2.15;;;1.60;99.90;;;;;;5067058;28;20040;-72
2023/03/06 03:40:53;;;;;;;2.20;2.00;;;1.60;99.90;;;;;;5066112;28;20047;-71
2023/03/06 03:43:19;;;;;;;2.38;2.10;;;1.60;99.90;;;;;;5047363;28;20043;-72
2023/03/06 03:45:44;;;;;;;2.45;2.25;;;1.50;99.90;;;;;;5039593;28;20028;-72
2023/03/06 03:48:10;;;;;;;3.00;2.08;;;1.50;99.90;;;;;;5062852;28;20082;-71
2023/03/06 03:50:36;;;;;;;4.22;2.17;;;1.40;99.90;;;;;;5048042;28;20047;-72
2023/03/06 03:53:01;;;;;;;4.00;2.38;;;1.40;99.90;;;;;;5059273;28;20043;-72
2023/03/06 03:55:27;;;;;;;5.40;2.20;;;1.30;99.90;;;;;;5045483;28;20453;-71
2023/03/06 03:57:53;;;;;;;4.05;2.45;;;1.30;99.90;;;;;;5061026;28;20036;-72
2023/03/06 04:00:19;;;;;;;4.32;2.50;;;1.20;99.90;;;;;;5061378;28;20044;-72
2023/03/06 04:02:45;;;;;;;3.92;2.30;;;1.10;99.90;;;;;;5044206;28;20393;-71
2023/03/06 04:05:13;;;;;;;3.20;2.20;;;1.00;99.90;;;;;;5064020;28;20088;-71
2023/03/06 04:07:39;;;;;;;6.00;2.40;;;1.00;99.90;;;;;;5064189;28;20069;-72
2023/03/06 04:10:07;;;;;;;3.95;2.53;;;0.90;99.90;;;;;;5063686;28;20036;-71
2023/03/06 04:12:32;;;;;;;3.00;2.35;;;0.90;99.90;;;;;;5049592;28;20040;-72
2023/03/06 04:14:58;;;;;;;4.18;2.33;;;0.90;99.90;;;;;;5068673;28;20522;-71
2023/03/06 04:17:24;;;;;;;4.88;2.47;;;0.90;99.90;;;;;;5049916;28;20043;-71
2023/03/06 04:19:50;;;;;;;3.85;2.45;;;0.80;99.90;;;;;;5056231;28;20059;-71
2023/03/06 04:22:16;;;;;;;3.80;2.58;;;0.80;99.90;;;;;;5050929;28;20035;-72
2023/03/06 04:24:41;;;;;;;4.47;2.40;;;0.80;99.90;;;;;;5065309;28;20051;-72
2023/03/06 04:27:07;;;;;;;4.22;2.50;;;0.80;99.90;;;;;;5066090;28;20440;-72
2023/03/06 04:29:33;;;;;;;4.93;2.50;;;0.70;99.90;;;;;;5049507;28;20055;-72
2023/03/06 04:31:58;;;;;;;3.70;2.50;;;0.70;99.90;;;;;;5050640;28;20047;-71
2023/03/06 04:34:24;;;;;;;4.97;2.83;;;0.70;99.90;;;;;;5064760;28;20035;-71
2023/03/06 04:36:49;;;;;;;5.78;2.70;;;0.80;99.90;;;;;;5067256;28;20082;-71
2023/03/06 04:39:15;;;;;;;4.55;2.95;;;0.70;99.90;;;;;;5050632;28;20067;-71
2023/03/06 04:41:41;;;;;;;4.13;2.90;;;0.80;99.90;;;;;;5065900;28;20028;-72
2023/03/06 04:44:07;;;;;;;4.90;2.75;;;0.80;99.90;;;;;;5065054;28;20039;-72
2023/03/06 04:46:33;;;;;;;5.35;2.80;;;0.80;99.90;;;;;;5064135;28;20051;-73
2023/03/06 04:48:59;;;;;;;6.43;3.00;;;0.80;99.90;;;;;;5063702;28;20040;-72
2023/03/06 04:51:25;;;;;;;4.57;3.00;;;0.80;99.90;;;;;;5066088;28;20047;-73
2023/03/06 04:53:51;;;;;;;6.15;3.00;;;0.90;99.90;;;;;;5064019;28;20055;-72
2023/03/06 04:56:17;;;;;;;4.80;2.92;;;0.90;99.90;;;;;;5062315;28;20040;-72
2023/03/06 04:58:43;;;;;;;5.40;3.20;;;0.90;99.90;;;;;;5065371;28;20048;-72
2023/03/06 05:01:09;;;;;;;5.22;3.05;;;0.90;99.90;;;;;;5064166;28;20035;-71
2023/03/06 05:03:35;;;;;;;6.47;3.22;;;0.90;99.90;;;;;;5066996;28;20093;-72
2023/03/06 05:06:00;;;;;;;8.30;3.40;;;0.90;99.90;;;;;;5083903;28;20032;-72
2023/03/06 05:08:26;;;;;;;5.93;3.30;;;0.90;99.90;;;;;;5047600;28;20040;-72
2023/03/06 05:10:58;;;;;;;6.10;3.20;;;0.80;99.90;;;;;;5048743;28;20569;-72
2023/03/06 05:13:24;;;;;;;5.35;3.30;;;0.90;99.90;;;;;;5061071;28;20042;-72
2023/03/06 05:15:50;;;;;;;7.53;3.25;;;0.90;99.90;;;;;;5063507;28;20054;-72
2023/03/06 05:18:16;;;;;;;4.05;3.10;;;0.80;99.90;;;;;;5063641;28;20040;-72
2023/03/06 05:20:42;;;;;;;6.18;3.70;;;0.80;99.90;;;;;;5058758;28;20040;-71
2023/03/06 05:23:07;;;;;;;6.18;3.45;;;0.90;99.90;;;;;;5047353;28;20038;-72
2023/03/06 05:25:33;;;;;;;7.22;3.80;;;0.90;99.90;;;;;;5064759;28;20052;-71
2023/03/06 05:27:59;;;;;;;6.07;3.20;;;0.90;99.90;;;;;;5064546;28;20055;-72
2023/03/06 05:30:24;;;;;;;8.35;3.85;;;0.90;99.90;;;;;;5045643;28;20040;-72
2023/03/06 05:32:50;;;;;;;8.85;4.18;;;0.90;99.90;;;;;;5065039;28;20583;-72
2023/03/06 05:35:21;;;;;;;10.18;3.92;;;0.90;99.90;;;;;;5048706;28;20487;-71
2023/03/06 05:37:47;;;;;;;7.53;3.70;;;0.90;99.90;;;;;;5053322;28;20118;-71
2023/03/06 05:40:13;;;;;;;6.47;3.75;;;0.90;99.90;;;;;;5064836;28;20115;-71
2023/03/06 05:42:39;;;;;;;8.93;3.95;;;0.80;99.90;;;;;;5061903;28;20101;-72
2023/03/06 05:45:05;;;;;;;6.90;3.67;;;0.70;99.90;;;;;;5045022;28;20036;-71
2023/03/06 05:47:31;;;;;;;6.18;3.63;;;0.70;99.90;;;;;;5065412;28;20518;-72
2023/03/06 05:49:56;;;;;;;7.38;4.10;;;0.70;99.90;;;;;;5052681;28;20040;-71
2023/03/06 05:52:22;;;;;;;6.72;3.65;;;0.60;99.90;;;;;;5051375;28;20051;-71
2023/03/06 05:54:52;;;;;;;8.13;3.95;;;0.60;99.90;;;;;;5049969;28;20040;-71
2023/03/06 05:57:19;;;;;;;9.98;4.40;;;0.60;99.90;;;;;;5086633;28;20134;-71
2023/03/06 05:59:46;;;;;;;8.45;4.18;;;0.50;99.90;;;;;;5063603;28;20043;-72
2023/03/06 06:02:11;;;;;;;10.23;4.65;;;0.40;99.90;;;;;;5050948;28;20032;-72
2023/03/06 06:04:37;;;;;;;6.88;4.45;;;0.40;99.90;;;;;;5062968;28;20059;-71
2023/03/06 06:07:04;;;;;;;8.68;4.32;;;0.40;99.90;;;;;;5050360;28;20044;-71
2023/03/06 06:09:31;;;;;;;9.52;4.55;;;0.40;99.90;;;;;;5067529;28;20060;-71
2023/03/06 06:11:59;;;;;;;7.93;4.15;;;0.30;99.90;;;;;;5069002;28;20071;-71
2023/03/06 06:14:25;;;;;;;10.15;4.47;;;0.20;99.90;;;;;;5062489;28;20385;-71
2023/03/06 06:16:51;;;;;;;176.85;13.10;;;0.20;99.90;;;;;;5065969;28;20047;-71
2023/03/06 06:19:18;;;;;;;33.47;7.70;;;0.20;99.90;;;;;;5068366;28;20040;-71
2023/03/06 06:21:52;;;;;;;38.75;7.00;;;0.20;99.90;;;;;;5063085;28;20039;-71
2023/03/06 06:24:20;;;;;;;15.45;5.57;;;0.20;99.90;;;;;;5067421;28;20067;-71
2023/03/06 06:26:48;;;;;;;14.20;5.65;;;0.20;99.90;;;;;;5049975;28;20028;-71
2023/03/06 06:29:14;;;;;;;12.63;5.90;;;0.20;99.90;;;;;;5066545;28;20055;-72
2023/03/06 06:31:40;;;;;;;14.57;6.45;;;0.30;99.90;;;;;;5065409;28;20417;-71
2023/03/06 06:34:07;;;;;;;18.13;7.68;;;0.20;99.90;;;;;;5049037;28;20149;-71
2023/03/06 06:36:32;;;;;;;16.92;7.45;;;0.30;99.90;;;;;;5051710;28;20046;-71
2023/03/06 06:38:58;;;;;;;14.18;8.20;;;0.20;99.90;;;;;;5067680;28;20084;-71
2023/03/06 06:41:25;;;;;;;30.55;10.43;;;0.20;99.90;;;;;;5066903;28;20044;-71
2023/03/06 06:43:50;;;;;;;14.45;7.13;;;0.20;99.90;;;;;;5059643;28;20048;-72
2023/03/06 06:46:16;;;;;;;16.17;6.97;;;0.30;99.90;;;;;;5065060;28;20043;-72
2023/03/06 06:48:42;;;;;;;12.85;7.00;;;0.30;99.90;;;;;;5061218;28;20420;-72
2023/03/06 06:51:07;;;;;;;19.98;8.73;;;0.30;99.90;;;;;;5064998;28;20044;-71
2023/03/06 06:53:33;;;;;;;47.03;8.77;;;0.20;99.90;;;;;;5067515;28;20419;-71
2023/03/06 06:55:59;;;;;;;16.65;8.45;;;0.20;99.90;;;;;;5084883;28;20043;-71
2023/03/06 06:58:25;;;;;;;19.70;10.45;;;0.30;99.90;;;;;;5048506;28;20522;-72
2023/03/06 07:00:51;;;;;;;16.85;9.45;;;0.30;99.90;;;;;;5060358;28;20043;-72
2023/03/06 07:03:16;;;;;;;17.60;9.43;;;0.30;99.90;;;;;;5067095;28;20736;-71
2023/03/06 07:05:42;;;;;;;19.55;8.90;;;0.40;99.90;;;;;;5066408;28;20047;-71
2023/03/06 07:08:08;;;;;;;17.13;8.88;;;0.40;99.90;;;;;;5049058;28;20488;-72
2023/03/06 07:10:35;;;;;;;19.35;8.40;;;0.40;99.90;;;;;;5065532;28;20131;-71
2023/03/06 07:13:01;;;;;;;29.23;10.18;;;0.40;99.90;;;;;;5065922;28;20040;-72
2023/03/06 07:15:28;;;;;;;22.98;10.23;;;0.40;99.90;;;;;;5061526;28;20047;-71
2023/03/06 07:17:54;;;;;;;18.13;10.05;;;0.50;99.90;;;;;;5065133;28;20404;-71
2023/03/06 07:20:20;;;;;;;18.92;9.95;;;0.60;99.90;;;;;;5063725;28;20086;-71
2023/03/06 07:22:46;;;;;;;21.05;10.52;;;0.60;99.90;;;;;;5065615;28;20040;-71
2023/03/06 07:25:11;;;;;;;16.98;9.77;;;0.60;99.90;;;;;;5067398;28;20056;-72
2023/03/06 07:27:37;;;;;;;17.85;10.32;;;0.70;99.90;;;;;;5063739;28;20048;-72
2023/03/06 07:30:04;;;;;;;15.80;8.80;;;0.80;99.90;;;;;;5067478;28;20051;-71
2023/03/06 07:32:29;;;;;;;17.77;8.13;;;0.80;99.90;;;;;;5067274;28;20126;-71
2023/03/06 07:34:55;;;;;;;15.27;7.43;;;1.00;99.90;;;;;;5065383;28;20131;-72
2023/03/06 07:37:21;;;;;;;15.23;7.40;;;1.00;99.90;;;;;;5061955;28;20502;-71
2023/03/06 07:39:46;;;;;;;15.73;8.43;;;1.00;99.90;;;;;;5065243;28;20101;-72
2023/03/06 07:42:13;;;;;;;17.05;9.25;;;1.10;99.90;;;;;;5047602;28;20047;-71
2023/03/06 07:44:39;;;;;;;18.08;9.48;;;1.20;99.90;;;;;;5041014;28;20045;-72
2023/03/06 07:47:04;;;;;;;16.63;10.15;;;1.20;99.90;;;;;;5058378;28;20090;-71
2023/03/06 07:49:30;;;;;;;19.63;11.48;;;1.20;99.90;;;;;;5043657;28;20476;-72
2023/03/06 07:51:57;;;;;;;17.75;10.32;;;1.20;99.90;;;;;;5069273;28;20050;-72
2023/03/06 07:54:23;;;;;;;19.23;10.93;;;1.30;99.90;;;;;;5059012;28;20075;-72
2023/03/06 07:56:52;;;;;;;15.98;9.65;;;1.40;99.90;;;;;;5051506;28;20079;-72
2023/03/06 07:59:18;;;;;;;16.20;9.45;;;1.40;99.90;;;;;;5063889;28;20040;-72
2023/03/06 08:01:44;;;;;;;16.27;9.18;;;1.50;99.90;;;;;;5052001;28;20035;-72
2023/03/06 08:04:09;;;;;;;17.83;10.63;;;1.60;99.90;;;;;;5048241;28;20463;-72
2023/03/06 08:06:35;;;;;;;20.65;11.20;;;1.70;99.90;;;;;;5068478;28;20040;-72
2023/03/06 08:09:01;;;;;;;15.43;10.40;;;1.80;99.90;;;;;;5066150;28;20090;-72
2023/03/06 08:11:29;;;;;;;16.30;8.75;;;1.90;99.90;;;;;;5042256;28;20039;-72
2023/03/06 08:13:55;;;;;;;12.95;6.88;;;2.00;99.90;;;;;;5066906;28;20395;-72
2023/03/06 08:16:23;;;;;;;12.23;6.28;;;2.10;99.90;;;;;;5065302;28;20032;-72
2023/03/06 08:18:49;;;;;;;10.88;6.03;;;2.30;99.90;;;;;;5049468;28;20036;-72
2023/03/06 08:21:17;;;;;;;11.57;6.18;;;2.40;99.90;;;;;;5063986;28;20098;-72
2023/03/06 08:23:43;;;;;;;9.73;5.22;;;2.50;99.90;;;;;;5066697;28;20087;-72
2023/03/06 08:26:17;;;;;;;9.30;4.90;;;2.60;99.90;;;;;;5051576;28;20048;-72
2023/03/06 08:28:43;;;;;;;8.13;4.28;;;2.80;99.90;;;;;;5065948;28;20068;-72
2023/03/06 08:31:12;;;;;;;10.00;4.97;;;2.90;99.90;;;;;;5067777;28;20385;-72
2023/03/06 08:33:39;;;;;;;8.30;4.60;;;2.90;99.90;;;;;;5064794;28;20051;-73
2023/03/06 08:36:05;;;;;;;9.98;4.40;;;2.90;99.90;;;;;;5051743;28;20043;-72
2023/03/06 08:38:30;;;;;;;9.35;5.10;;;3.00;99.90;;;;;;5068120;28;20486;-72
2023/03/06 08:40:56;;;;;;;7.90;4.13;;;3.00;99.90;;;;;;5050443;28;20048;-72
2023/03/06 08:43:22;;;;;;;11.90;5.13;;;3.10;99.90;;;;;;5067879;28;20484;-72
2023/03/06 08:45:55;;;;;;;9.38;4.60;;;3.20;99.90;;;;;;5050269;28;20046;-72
2023/03/06 08:48:21;;;;;;;10.20;4.80;;;3.50;99.90;;;;;;5065626;28;20048;-72
2023/03/06 08:50:47;;;;;;;9.30;4.70;;;4.00;99.90;;;;;;5068180;28;20040;-72
2023/03/06 08:53:12;;;;;;;7.03;4.70;;;4.60;99.90;;;;;;5065734;28;20051;-72
2023/03/06 08:55:38;;;;;;;7.32;4.20;;;5.30;99.90;;;;;;5062558;28;20047;-72
2023/03/06 08:58:04;;;;;;;5.68;3.50;;;5.80;99.90;;;;;;5043937;28;20036;-72
2023/03/06 09:00:31;;;;;;;6.00;3.10;;;6.20;99.90;;;;;;5063546;28;20039;-72
2023/03/06 09:02:56;;;;;;;5.50;3.28;;;6.50;99.90;;;;;;5043061;28;20035;-72
2023/03/06 09:05:22;;;;;;;3.90;2.78;;;6.70;99.90;;;;;;5044281;28;20036;-72
2023/03/06 09:07:48;;;;;;;7.00;3.20;;;6.80;99.90;;;;;;5048098;28;20455;-72
2023/03/06 09:10:17;;;;;;;4.53;2.80;;;6.90;99.90;;;;;;5078304;28;20032;-72
2023/03/06 09:12:43;;;;;;;4.68;2.88;;;6.80;99.90;;;;;;5067577;28;20043;-73
2023/03/06 09:15:11;;;;;;;4.85;2.58;;;6.60;99.90;;;;;;5064295;28;20472;-72
2023/03/06 09:17:36;;;;;;;4.60;2.47;;;6.40;99.90;;;;;;5047622;28;20043;-72
2023/03/06 09:20:03;;;;;;;4.50;2.47;;;6.30;99.90;;;;;;5047621;28;20487;-72
2023/03/06 09:22:28;;;;;;;3.50;2.20;;;6.20;99.90;;;;;;5062696;28;20074;-72
2023/03/06 09:24:54;;;;;;;6.03;2.38;;;6.10;99.90;;;;;;5065677;28;20086;-72
2023/03/06 09:27:21;;;;;;;3.80;2.35;;;6.10;99.90;;;;;;5064412;28;20051;-72
2023/03/06 09:29:47;;;;;;;4.78;2.60;;;6.10;99.90;;;;;;5042032;28;20033;-72
2023/03/06 09:32:12;;;;;;;4.25;2.40;;;6.20;99.90;;;;;;5060718;28;20035;-72
2023/03/06 09:34:38;;;;;;;3.42;2.00;;;6.30;99.90;;;;;;5047813;28;20044;-72
2023/03/06 09:37:04;;;;;;;3.75;1.88;;;6.30;99.90;;;;;;5045485;28;20393;-72
2023/03/06 09:39:29;;;;;;;2.50;1.75;;;6.30;99.90;;;;;;5055559;28;20040;-72
2023/03/06 09:41:57;;;;;;;5.38;1.80;;;6.20;99.90;;;;;;5056120;28;20403;-72
2023/03/06 09:44:26;;;;;;;4.10;1.92;;;6.20;99.90;;;;;;5081050;28;20123;-72
2023/03/06 09:47:14;;;;;;;6.53;2.05;;;6.20;99.90;;;;;;5059008;28;20507;-72
2023/03/06 09:49:58;;;;;;;6.43;1.95;;;6.40;99.90;;;;;;5061332;28;20039;-72
2023/03/06 09:52:32;;;;;;;3.45;1.90;;;6.70;99.90;;;;;;5061458;28;20067;-72
2023/03/06 09:55:30;;;;;;;4.20;1.80;;;6.90;99.90;;;;;;5049875;28;20047;-72
2023/03/06 09:58:10;;;;;;;2.45;1.45;;;7.00;99.90;;;;;;5028164;28;20075;-72
2023/03/06 10:00:45;;;;;;;4.65;1.80;;;7.30;99.90;;;;;;5063250;28;20225;-72
2023/03/06 10:03:16;;;;;;;5.53;1.65;;;7.30;99.90;;;;;;5042570;28;20445;-71
2023/03/06 10:06:08;;;;;;;3.45;1.45;;;7.20;99.90;;;;;;5055349;28;20036;-72
2023/03/06 10:08:48;;;;;;;2.72;1.30;;;7.30;99.90;;;;;;5065677;28;20070;-72
2023/03/06 10:11:20;;;;;;;3.95;1.80;;;7.40;99.90;;;;;;5064643;28;20123;-72
2023/03/06 10:13:52;;;;;;;3.15;1.60;;;7.40;99.90;;;;;;5059053;28;20110;-72
2023/03/06 10:16:29;;;;;;;4.35;1.50;;;7.50;99.90;;;;;;5044623;28;20052;-71
2023/03/06 10:18:58;;;;;;;5.35;1.60;;;7.60;99.90;;;;;;5064130;28;20048;-72
2023/03/06 10:21:36;;;;;;;5.65;1.70;;;7.90;99.90;;;;;;5059700;28;20032;-72
2023/03/06 10:24:15;;;;;;;4.45;1.20;;;8.10;99.90;;;;;;5054337;28;20301;-72
2023/03/06 10:26:50;;;;;;;3.90;1.85;;;8.10;99.90;;;;;;5069942;28;20044;-72
2023/03/06 10:29:27;;;;;;;6.57;1.40;;;8.00;99.90;;;;;;5067748;28;20043;-72
2023/03/06 10:32:02;;;;;;;4.20;1.40;;;7.70;99.90;;;;;;5085406;28;20043;-72
2023/03/06 10:34:31;;;;;;;2.95;1.50;;;7.50;99.90;;;;;;5068659;28;20047;-72
2023/03/06 10:37:05;;;;;;;3.25;1.50;;;7.10;99.90;;;;;;5064839;28;20479;-72
2023/03/06 10:39:30;;;;;;;5.07;1.63;;;6.90;99.90;;;;;;5051092;28;20484;-72
2023/03/06 10:41:56;;;;;;;3.92;1.60;;;6.70;99.90;;;;;;5053407;28;20071;-72
2023/03/06 10:44:23;;;;;;;4.70;1.80;;;6.50;99.90;;;;;;5069847;28;20404;-71
2023/03/06 10:46:51;;;;;;;4.50;1.60;;;6.40;99.90;;;;;;5069623;28;20098;-72
2023/03/06 10:49:26;;;;;;;9.90;1.95;;;6.10;99.90;;;;;;5053732;28;20036;-71
2023/03/06 10:52:21;;;;;;;2.88;2.00;;;6.00;99.90;;;;;;5069226;28;20048;-72
2023/03/06 10:54:49;;;;;;;4.90;1.85;;;6.00;99.90;;;;;;5067275;28;20130;-72
2023/03/06 10:57:26;;;;;;;6.85;2.10;;;6.00;99.90;;;;;;5066975;28;20066;-72
2023/03/06 11:00:05;;;;;;;6.40;2.22;;;6.10;99.90;;;;;;5052935;28;20051;-71
2023/03/06 11:02:40;;;;;;;3.28;1.90;;;6.60;99.90;;;;;;5051028;28;20062;-71
2023/03/06 11:05:17;;;;;;;6.38;1.80;;;6.90;99.90;;;;;;5069673;28;20120;-71
2023/03/06 11:07:55;;;;;;;4.03;2.00;;;6.80;99.90;;;;;;5050009;28;20040;-71
2023/03/06 11:10:22;;;;;;;8.18;1.95;;;6.70;99.90;;;;;;5067238;28;20398;-72
2023/03/06 11:13:21;;;;;;;4.32;2.03;;;6.60;99.90;;;;;;5067241;28;20119;-72
2023/03/06 11:16:03;;;;;;;2.88;1.90;;;6.40;99.90;;;;;;5052145;28;20376;-71
2023/03/06 11:18:35;;;;;;;5.43;2.00;;;6.30;99.90;;;;;;5069622;28;20152;-72
2023/03/06 11:21:03;;;;;;;5.40;2.40;;;6.20;99.90;;;;;;5052208;28;20043;-71
2023/03/06 11:23:46;;;;;;;3.17;1.98;;;6.00;99.90;;;;;;5069520;28;20043;-71
2023/03/06 11:26:29;;;;;;;3.40;2.00;;;5.90;99.90;;;;;;5062006;28;20396;-72
2023/03/06 11:29:05;;;;;;;3.00;1.90;;;5.90;99.90;;;;;;5066632;28;20071;-71
2023/03/06 11:31:35;;;;;;;5.13;2.20;;;6.00;99.90;;;;;;5049102;28;20040;-72
2023/03/06 11:34:34;;;;;;;2.40;2.00;;;6.00;99.90;;;;;;5067859;28;20046;-72
2023/03/06 11:37:11;;;;;;;4.00;1.75;;;6.50;99.90;;;;;;5065753;28;20373;-72
2023/03/06 11:39:46;;;;;;;5.03;1.90;;;6.90;99.90;;;;;;5068786;28;20040;-72
2023/03/06 11:42:31;;;;;;;2.85;1.70;;;7.00;99.90;;;;;;5050110;28;20085;-72
2023/03/06 11:45:08;;;;;;;3.13;1.73;;;7.00;99.90;;;;;;5066504;28;20529;-71
2023/03/06 11:47:41;;;;;;;1.73;1.40;;;6.90;99.90;;;;;;5060742;28;20045;-72
2023/03/06 11:50:20;;;;;;;4.13;1.70;;;6.90;99.90;;;;;;5067441;28;20059;-71
2023/03/06 11:52:53;;;;;;;3.47;1.70;;;6.60;99.90;;;;;;5059003;28;20392;-72
2023/03/06 11:55:28;;;;;;;2.45;1.70;;;6.50;99.90;;;;;;5063484;28;20520;-72
2023/03/06 11:58:06;;;;;;;4.80;1.73;;;6.40;99.90;;;;;;5044663;28;20054;-72
2023/03/06 12:01:05;;;;;;;3.80;1.70;;;6.40;99.90;;;;;;5060370;28;20043;-71
2023/03/06 12:03:58;;;;;;;4.35;1.90;;;6.50;99.90;;;;;;5059126;28;20036;-71
2023/03/06 12:07:11;;;;;;;3.03;1.63;;;6.70;99.90;;;;;;5061934;28;20066;-72
2023/03/06 12:09:50;;;;;;;5.55;1.52;;;6.80;99.90;;;;;;5045013;28;20044;-71
2023/03/06 12:12:53;;;;;;;3.97;1.52;;;6.90;99.90;;;;;;5066279;28;20046;-72
2023/03/06 12:15:28;;;;;;;3.92;1.48;;;7.00;99.90;;;;;;5042605;28;20621;-72
2023/03/06 12:18:02;;;;;;;2.83;1.80;;;7.20;99.90;;;;;;5058841;28;20075;-71
2023/03/06 12:20:37;;;;;;;3.63;1.67;;;7.10;99.90;;;;;;5053353;28;20045;-72
2023/03/06 12:23:22;;;;;;;6.43;2.05;;;7.10;99.90;;;;;;5046117;28;20442;-71
2023/03/06 12:26:01;;;;;;;3.10;1.40;;;7.10;99.90;;;;;;5060742;28;20051;-72
2023/03/06 12:28:26;;;;;;;4.00;1.65;;;6.90;99.90;;;;;;5058089;28;20037;-72
2023/03/06 12:30:58;;;;;;;4.43;1.80;;;6.80;99.90;;;;;;5050290;28;20059;-71
2023/03/06 12:33:35;;;;;;;3.15;1.40;;;6.70;99.90;;;;;;5065378;28;20051;-71
2023/03/06 12:36:01;;;;;;;2.92;1.42;;;6.80;99.90;;;;;;5036316;28;20056;-72
2023/03/06 12:39:00;;;;;;;4.40;1.92;;;7.00;99.90;;;;;;5065737;28;20052;-72
2023/03/06 12:41:44;;;;;;;3.17;1.40;;;7.20;99.90;;;;;;5061544;28;20132;-71
2023/03/06 12:44:21;;;;;;;1.33;1.23;;;7.30;99.90;;;;;;5065351;28;20067;-72
2023/03/06 12:46:59;;;;;;;1.30;1.20;;;7.40;99.90;;;;;;5065134;28;20047;-72
2023/03/06 12:49:30;;;;;;;2.45;1.40;;;7.50;99.90;;;;;;5066575;28;20392;-72
2023/03/06 12:51:58;;;;;;;3.95;1.42;;;7.50;99.90;;;;;;5059669;28;20036;-71
2023/03/06 12:54:28;;;;;;;1.50;1.40;;;7.50;99.90;;;;;;5066088;28;20436;-72
2023/03/06 12:56:55;;;;;;;2.63;1.40;;;7.50;99.90;;;;;;5062832;28;20036;-72
2023/03/06 12:59:37;;;;;;;3.20;1.52;;;7.50;99.90;;;;;;5049047;28;20038;-72
2023/03/06 13:02:12;;;;;;;2.65;1.42;;;7.60;99.90;;;;;;5046423;28;20036;-71
2023/03/06 13:04:48;;;;;;;2.13;1.90;;;7.60;99.90;;;;;;5048207;28;20039;-71